Time;durP1;ratioP1;P1;durP2;ratioP2;P2;SDS_P1;SDS_P2;PMS_P1;PMS_P2;Temp;Humidity;BMP_temperature;BMP_pressure;BME280_temperature;BME280_humidity;BME280_pressure;Samples;Min_cycle;Max_cycle;Signal;HPM_P1;HPM_P2
2021/05/01 00:02:13;;;;;;;4.43;0.88;;;40.90;8.40;;;;;;5095640;28;20069;-66
2021/05/01 00:04:39;;;;;;;14.48;1.73;;;40.90;7.80;;;;;;5081495;28;20073;-66
2021/05/01 00:07:06;;;;;;;4.47;0.88;;;40.80;8.30;;;;;;5091815;28;20556;-64
2021/05/01 00:09:33;;;;;;;7.53;0.90;;;40.80;8.50;;;;;;5094769;28;20085;-65
2021/05/01 00:11:59;;;;;;;4.25;0.75;;;40.70;8.00;;;;;;5090814;28;20081;-65
2021/05/01 00:14:26;;;;;;;9.40;1.23;;;40.70;8.40;;;;;;5098699;28;20131;-65
2021/05/01 00:16:54;;;;;;;2.67;0.90;;;40.70;8.40;;;;;;5087818;28;20077;-66
2021/05/01 00:19:22;;;;;;;7.07;1.35;;;40.60;9.00;;;;;;5091019;28;20083;-66
2021/05/01 00:21:49;;;;;;;2.75;0.90;;;40.70;8.90;;;;;;5088572;28;20064;-65
2021/05/01 00:24:15;;;;;;;3.03;0.90;;;40.70;8.70;;;;;;5087585;28;20092;-65
2021/05/01 00:26:42;;;;;;;8.38;1.13;;;40.60;9.00;;;;;;5095233;28;20423;-65
2021/05/01 00:29:08;;;;;;;7.25;1.27;;;40.60;9.30;;;;;;5094648;28;20087;-64
2021/05/01 00:31:35;;;;;;;6.45;1.20;;;40.60;8.50;;;;;;5089530;28;20072;-66
2021/05/01 00:34:04;;;;;;;5.93;1.13;;;40.50;9.30;;;;;;5070709;28;20590;-64
2021/05/01 00:36:31;;;;;;;4.10;1.10;;;40.40;8.50;;;;;;5100292;28;20528;-66
2021/05/01 00:38:58;;;;;;;2.63;1.10;;;40.30;8.50;;;;;;5100460;28;20092;-64
2021/05/01 00:41:24;;;;;;;4.30;1.20;;;40.30;8.90;;;;;;5102544;28;20098;-65
2021/05/01 00:43:51;;;;;;;5.25;1.10;;;40.30;8.70;;;;;;5097119;28;20076;-66
2021/05/01 00:46:18;;;;;;;3.85;0.80;;;40.20;8.10;;;;;;5098235;28;20077;-66
2021/05/01 00:48:44;;;;;;;2.83;0.75;;;40.00;8.30;;;;;;5077749;28;20072;-65
2021/05/01 00:51:11;;;;;;;5.93;1.20;;;40.00;8.80;;;;;;5090676;28;20188;-66
2021/05/01 00:53:38;;;;;;;4.28;1.00;;;39.90;8.10;;;;;;5096841;28;20108;-66
2021/05/01 00:56:06;;;;;;;3.95;1.00;;;39.90;8.70;;;;;;5093806;28;20106;-66
2021/05/01 00:58:33;;;;;;;2.65;0.82;;;39.80;9.20;;;;;;5093537;28;20524;-67
2021/05/01 01:03:37;;;;;;;11.57;1.10;;;39.70;9.00;;;;;;5088029;28;20155;-67
2021/05/01 01:06:05;;;;;;;5.35;1.10;;;39.60;8.90;;;;;;5087842;28;20077;-66
2021/05/01 01:08:31;;;;;;;7.32;1.15;;;39.50;9.40;;;;;;5093447;28;20068;-66
2021/05/01 01:10:58;;;;;;;8.23;1.58;;;39.50;10.50;;;;;;5084700;28;20448;-68
2021/05/01 01:13:25;;;;;;;9.98;1.40;;;39.40;10.30;;;;;;5089982;28;20088;-65
2021/05/01 01:15:51;;;;;;;9.20;1.35;;;39.30;10.10;;;;;;5095416;28;20072;-65
2021/05/01 01:18:18;;;;;;;5.55;1.50;;;39.30;9.60;;;;;;5094804;28;20087;-66
2021/05/01 01:20:45;;;;;;;15.68;2.60;;;39.10;9.50;;;;;;5095443;28;20529;-66
2021/05/01 01:23:12;;;;;;;17.58;1.90;;;39.00;10.30;;;;;;5100221;28;20073;-66
2021/05/01 01:25:39;;;;;;;17.67;2.03;;;38.90;10.00;;;;;;5095519;28;20618;-66
2021/05/01 01:28:06;;;;;;;24.42;1.85;;;38.80;9.80;;;;;;5100157;28;20079;-65
2021/05/01 01:30:34;;;;;;;13.13;1.90;;;38.70;10.20;;;;;;5082643;28;20102;-67
2021/05/01 01:33:06;;;;;;;13.57;2.13;;;38.90;9.80;;;;;;5100665;28;20179;-65
2021/05/01 01:35:34;;;;;;;12.63;2.42;;;39.00;9.40;;;;;;5093314;28;20076;-65
2021/05/01 01:38:00;;;;;;;11.80;2.33;;;38.90;9.70;;;;;;5098704;28;20072;-66
2021/05/01 01:40:27;;;;;;;16.90;1.90;;;38.60;9.40;;;;;;5098468;28;20105;-66
2021/05/01 01:42:54;;;;;;;13.75;2.75;;;38.40;10.20;;;;;;5083293;28;20099;-64
2021/05/01 01:45:23;;;;;;;22.80;2.58;;;38.20;10.60;;;;;;5098568;28;20165;-65
2021/05/01 01:47:50;;;;;;;17.88;2.22;;;38.00;11.00;;;;;;5097825;28;20164;-66
2021/05/01 01:50:18;;;;;;;21.10;2.75;;;37.90;11.30;;;;;;5100503;28;20075;-65
2021/05/01 01:52:46;;;;;;;25.60;2.83;;;37.80;11.40;;;;;;5098104;28;20563;-65
2021/05/01 01:55:16;;;;;;;31.88;3.20;;;37.70;11.80;;;;;;5096997;28;20096;-66
2021/05/01 01:57:45;;;;;;;21.92;2.80;;;37.50;12.50;;;;;;5092307;28;20088;-65
2021/05/01 02:00:17;;;;;;;27.85;2.45;;;37.40;12.40;;;;;;5097717;28;20155;-65
2021/05/01 02:02:44;;;;;;;23.58;2.65;;;37.20;12.60;;;;;;5096395;28;20066;-66
2021/05/01 02:05:12;;;;;;;20.42;2.22;;;37.10;12.50;;;;;;5097080;28;20077;-65
2021/05/01 02:07:39;;;;;;;19.20;2.33;;;36.90;12.80;;;;;;5076862;28;20097;-67
2021/05/01 02:10:08;;;;;;;20.23;2.40;;;36.80;13.20;;;;;;5080737;28;20147;-65
2021/05/01 02:12:39;;;;;;;19.02;2.00;;;36.70;13.20;;;;;;5096376;28;20080;-65
2021/05/01 02:15:13;;;;;;;22.23;2.10;;;36.60;12.60;;;;;;5097774;28;20073;-66
2021/05/01 02:17:49;;;;;;;28.95;2.70;;;36.50;12.60;;;;;;5100833;28;20068;-66
2021/05/01 02:20:19;;;;;;;20.33;2.30;;;36.40;12.90;;;;;;5099263;28;20075;-67
2021/05/01 02:22:46;;;;;;;15.35;2.50;;;36.30;13.10;;;;;;5096759;28;20108;-65
2021/05/01 02:25:13;;;;;;;25.73;3.22;;;36.20;12.80;;;;;;5080381;28;20100;-66
2021/05/01 02:27:41;;;;;;;21.30;2.95;;;36.10;12.80;;;;;;5098241;28;20071;-64
2021/05/01 02:30:10;;;;;;;18.92;3.17;;;35.90;13.20;;;;;;5097644;28;20155;-58
2021/05/01 02:32:37;;;;;;;22.25;2.58;;;35.90;13.00;;;;;;5095719;28;20417;-56
2021/05/01 02:35:06;;;;;;;17.52;3.08;;;35.80;13.00;;;;;;5098366;28;20176;-55
2021/05/01 02:37:33;;;;;;;22.92;3.00;;;35.70;13.10;;;;;;5097062;28;20064;-61
2021/05/01 02:39:59;;;;;;;16.05;2.80;;;35.60;13.20;;;;;;5098440;28;20068;-60
2021/05/01 02:42:26;;;;;;;11.45;2.38;;;35.60;12.90;;;;;;5097160;28;20065;-54
2021/05/01 02:44:52;;;;;;;13.38;2.05;;;35.60;12.40;;;;;;5094911;28;20107;-57
2021/05/01 02:47:19;;;;;;;11.23;1.70;;;35.60;12.00;;;;;;5098817;28;20104;-59
2021/05/01 02:49:46;;;;;;;11.07;1.88;;;35.50;11.80;;;;;;5093390;28;20159;-56
2021/05/01 02:52:12;;;;;;;11.27;1.90;;;35.50;11.60;;;;;;5094855;28;20075;-57
2021/05/01 02:54:39;;;;;;;12.65;2.65;;;35.40;11.80;;;;;;5098390;28;20599;-56
2021/05/01 02:57:05;;;;;;;13.32;2.20;;;35.40;12.10;;;;;;5093926;28;20080;-57
2021/05/01 02:59:32;;;;;;;9.52;2.50;;;35.20;11.00;;;;;;5096659;28;20088;-57
2021/05/01 03:01:58;;;;;;;6.03;2.22;;;35.20;11.10;;;;;;5095536;28;20131;-57
2021/05/01 03:04:25;;;;;;;11.95;2.13;;;35.10;11.10;;;;;;5096720;28;20112;-55
2021/05/01 03:06:52;;;;;;;11.80;2.40;;;35.00;11.50;;;;;;5096770;28;20079;-56
2021/05/01 03:09:18;;;;;;;9.45;2.58;;;34.90;10.70;;;;;;5095510;28;20082;-58
2021/05/01 03:11:45;;;;;;;8.52;2.58;;;34.80;11.10;;;;;;5100130;28;20068;-57
2021/05/01 03:14:11;;;;;;;13.38;2.95;;;34.70;12.00;;;;;;5103160;28;20092;-57
2021/05/01 03:16:38;;;;;;;14.50;2.80;;;34.60;11.60;;;;;;5102543;28;20125;-58
2021/05/01 03:19:05;;;;;;;17.65;3.10;;;34.50;11.80;;;;;;5097045;28;20091;-55
2021/05/01 03:21:31;;;;;;;12.13;2.92;;;34.40;12.00;;;;;;5093530;28;20079;-55
2021/05/01 03:23:58;;;;;;;16.05;2.72;;;34.20;11.90;;;;;;5100568;28;20292;-60
2021/05/01 03:26:25;;;;;;;20.35;3.75;;;34.10;11.80;;;;;;5102648;28;20126;-55
2021/05/01 03:28:51;;;;;;;10.93;3.50;;;34.00;11.90;;;;;;5101179;28;20083;-56
2021/05/01 03:31:18;;;;;;;22.73;3.60;;;33.90;11.70;;;;;;5101591;28;20080;-58
2021/05/01 03:33:44;;;;;;;15.70;3.40;;;33.80;12.40;;;;;;5097955;28;20124;-56
2021/05/01 03:36:11;;;;;;;15.77;3.70;;;33.70;11.90;;;;;;5099634;28;20156;-58
2021/05/01 03:38:37;;;;;;;30.70;4.20;;;33.70;11.60;;;;;;5102657;28;20522;-55
2021/05/01 03:41:04;;;;;;;15.40;3.08;;;33.60;11.60;;;;;;5102033;28;20498;-58
2021/05/01 03:43:31;;;;;;;18.80;2.92;;;33.70;11.30;;;;;;5100110;28;20077;-56
2021/05/01 03:45:58;;;;;;;20.75;3.42;;;33.70;11.20;;;;;;5099070;28;20080;-59
2021/05/01 03:48:25;;;;;;;24.48;3.53;;;33.70;11.30;;;;;;5099827;28;20577;-56
2021/05/01 03:50:51;;;;;;;32.90;2.97;;;33.60;11.30;;;;;;5100431;28;20191;-58
2021/05/01 03:53:18;;;;;;;22.42;3.35;;;33.60;11.40;;;;;;5097292;28;20614;-58
2021/05/01 03:55:44;;;;;;;17.85;2.55;;;33.60;11.30;;;;;;5096891;28;20076;-57
2021/05/01 03:58:11;;;;;;;23.98;3.25;;;33.50;11.10;;;;;;5100810;28;20153;-58
2021/05/01 04:00:37;;;;;;;28.05;4.68;;;33.50;11.10;;;;;;5097544;28;20096;-58
2021/05/01 04:03:04;;;;;;;43.67;9.48;;;33.40;12.20;;;;;;5099194;28;20076;-56
2021/05/01 04:05:30;;;;;;;27.92;8.73;;;33.30;12.10;;;;;;5100482;28;20147;-55
2021/05/01 04:07:57;;;;;;;28.58;6.95;;;33.30;12.60;;;;;;5103775;28;20069;-57
2021/05/01 04:10:24;;;;;;;24.25;6.85;;;33.10;12.80;;;;;;5099958;28;20080;-58
2021/05/01 04:12:50;;;;;;;26.83;6.47;;;33.00;13.60;;;;;;5099546;28;20100;-57
2021/05/01 04:15:17;;;;;;;29.75;4.85;;;32.80;14.00;;;;;;5101916;28;20072;-54
2021/05/01 04:17:43;;;;;;;34.22;6.68;;;32.70;14.50;;;;;;5101097;28;20068;-58
2021/05/01 04:20:11;;;;;;;31.58;6.97;;;32.00;23.00;;;;;;5102550;28;20164;-57
2021/05/01 04:22:37;;;;;;;34.30;4.82;;;32.40;13.10;;;;;;5098671;28;20199;-59
2021/05/01 04:25:05;;;;;;;29.63;4.25;;;32.30;12.40;;;;;;5100821;28;20437;-57
2021/05/01 04:27:31;;;;;;;40.13;4.03;;;31.80;27.90;;;;;;5100643;28;20077;-59
2021/05/01 04:29:58;;;;;;;22.95;3.80;;;32.30;11.20;;;;;;5101067;28;20084;-57
2021/05/01 04:32:25;;;;;;;30.63;4.10;;;32.30;11.30;;;;;;5101665;28;20151;-59
2021/05/01 04:34:51;;;;;;;42.60;3.85;;;32.40;13.00;;;;;;5094737;28;20084;-59
2021/05/01 04:37:18;;;;;;;28.75;3.45;;;32.30;25.50;;;;;;5093348;28;21434;-61
2021/05/01 04:39:44;;;;;;;24.40;3.08;;;32.50;33.70;;;;;;5096772;28;20551;-60
2021/05/01 04:42:12;;;;;;;16.20;3.15;;;32.40;12.50;;;;;;5097514;28;20068;-61
2021/05/01 04:44:39;;;;;;;28.65;4.15;;;32.40;27.10;;;;;;5094404;28;20429;-58
2021/05/01 04:47:06;;;;;;;23.88;3.30;;;32.40;10.80;;;;;;5095980;28;20118;-57
2021/05/01 04:49:32;;;;;;;34.08;5.05;;;32.40;10.60;;;;;;5094991;28;20069;-58
2021/05/01 04:52:00;;;;;;;11.85;2.58;;;32.40;11.10;;;;;;5100598;28;20073;-57
2021/05/01 04:54:26;;;;;;;23.58;2.60;;;32.30;11.30;;;;;;5096558;28;20453;-54
2021/05/01 04:56:53;;;;;;;22.98;3.05;;;32.30;11.10;;;;;;5097437;28;20079;-56
2021/05/01 04:59:19;;;;;;;21.63;2.88;;;32.30;11.60;;;;;;5094992;28;20077;-55
2021/05/01 05:01:46;;;;;;;17.70;2.67;;;32.20;11.40;;;;;;5098054;28;20073;-55
2021/05/01 05:04:12;;;;;;;21.60;3.03;;;32.20;11.40;;;;;;5095023;28;20080;-55
2021/05/01 05:06:39;;;;;;;11.10;2.33;;;32.10;11.90;;;;;;5097832;28;20075;-56
2021/05/01 05:09:05;;;;;;;20.98;2.95;;;32.20;22.80;;;;;;5094775;28;20077;-58
2021/05/01 05:11:32;;;;;;;19.60;2.85;;;32.00;11.00;;;;;;5100072;28;20540;-59
2021/05/01 05:14:00;;;;;;;26.00;3.20;;;32.00;28.20;;;;;;5097015;28;20552;-58
2021/05/01 05:16:27;;;;;;;24.05;3.33;;;32.00;11.60;;;;;;5098068;28;20075;-57
2021/05/01 05:18:56;;;;;;;25.58;3.85;;;31.80;36.90;;;;;;5101795;28;20159;-58
2021/05/01 05:21:24;;;;;;;19.65;5.88;;;31.80;18.50;;;;;;5095169;28;20088;-61
2021/05/01 05:23:50;;;;;;;27.10;9.38;;;31.90;11.10;;;;;;5096768;28;20169;-55
2021/05/01 05:26:17;;;;;;;20.67;2.97;;;31.60;26.20;;;;;;5096314;28;20080;-56
2021/05/01 05:28:44;;;;;;;23.95;3.38;;;31.90;21.50;;;;;;5102890;28;20070;-57
2021/05/01 05:31:10;;;;;;;15.75;3.45;;;31.80;22.00;;;;;;5094729;28;20520;-57
2021/05/01 05:33:37;;;;;;;20.58;3.53;;;31.80;18.60;;;;;;5095009;28;20108;-56
2021/05/01 05:36:04;;;;;;;20.13;4.97;;;31.70;10.80;;;;;;5089939;28;20068;-58
2021/05/01 05:38:30;;;;;;;24.85;6.20;;;31.60;10.90;;;;;;5094689;28;20171;-57
2021/05/01 05:40:56;;;;;;;22.08;5.03;;;31.60;11.00;;;;;;5094734;28;20069;-58
2021/05/01 05:43:23;;;;;;;25.13;4.93;;;31.50;11.00;;;;;;5091149;28;20072;-58
2021/05/01 05:45:50;;;;;;;25.25;5.78;;;31.40;11.30;;;;;;5094657;28;20072;-59
2021/05/01 05:48:17;;;;;;;33.78;6.55;;;31.40;11.40;;;;;;5092186;28;20143;-57
2021/05/01 05:50:44;;;;;;;24.10;5.75;;;31.30;11.50;;;;;;5074156;28;20072;-54
2021/05/01 05:53:11;;;;;;;26.10;5.90;;;31.20;11.70;;;;;;5097263;28;20096;-56
2021/05/01 05:55:37;;;;;;;23.55;5.95;;;31.20;11.70;;;;;;5077093;28;20097;-57
2021/05/01 05:58:04;;;;;;;19.30;5.10;;;31.20;11.70;;;;;;5091372;28;20077;-57
2021/05/01 06:00:30;;;;;;;24.27;5.25;;;31.10;11.80;;;;;;5097712;28;20069;-55
2021/05/01 06:03:00;;;;;;;14.82;4.10;;;31.10;11.90;;;;;;5097182;28;20169;-55
2021/05/01 06:05:35;;;;;;;15.30;3.33;;;31.00;12.10;;;;;;5096185;28;20076;-57
2021/05/01 06:08:07;;;;;;;7.63;2.78;;;30.90;12.10;;;;;;5093595;28;20435;-53
2021/05/01 06:10:35;;;;;;;13.45;2.60;;;30.80;12.10;;;;;;5091931;28;20069;-57
2021/05/01 06:13:03;;;;;;;11.70;2.17;;;30.80;12.20;;;;;;5098511;28;20093;-57
2021/05/01 06:15:31;;;;;;;11.18;2.03;;;30.70;12.20;;;;;;5095143;28;20100;-56
2021/05/01 06:18:01;;;;;;;10.40;2.17;;;30.70;12.40;;;;;;5093559;28;20080;-57
2021/05/01 06:20:29;;;;;;;9.23;2.28;;;30.60;12.40;;;;;;5098625;28;20072;-57
2021/05/01 06:22:56;;;;;;;8.65;1.98;;;30.60;12.50;;;;;;5089908;28;20121;-58
2021/05/01 06:25:23;;;;;;;9.45;2.00;;;30.50;12.40;;;;;;5096004;28;20071;-56
2021/05/01 06:27:53;;;;;;;6.18;1.70;;;30.50;12.70;;;;;;5093085;28;20156;-57
2021/05/01 06:30:21;;;;;;;5.63;1.55;;;30.40;12.70;;;;;;5091314;28;20081;-53
2021/05/01 06:32:48;;;;;;;8.48;2.15;;;30.30;12.80;;;;;;5090645;28;20081;-52
2021/05/01 06:35:15;;;;;;;6.05;1.60;;;30.30;13.00;;;;;;5074016;28;20076;-51
2021/05/01 06:37:44;;;;;;;7.13;1.90;;;30.20;13.00;;;;;;5092568;28;20087;-52
2021/05/01 06:40:15;;;;;;;5.38;1.55;;;30.10;13.10;;;;;;5092922;28;20080;-55
2021/05/01 06:42:47;;;;;;;5.35;1.60;;;30.10;13.30;;;;;;5095221;28;20498;-55
2021/05/01 06:45:16;;;;;;;5.82;1.30;;;30.10;13.30;;;;;;5090239;28;20508;-56
2021/05/01 06:48:04;;;;;;;7.43;1.50;;;30.10;13.40;;;;;;5073085;28;20112;-56
2021/05/01 06:50:32;;;;;;;8.52;1.50;;;30.00;13.40;;;;;;5091218;28;20069;-57
2021/05/01 06:52:59;;;;;;;9.52;1.50;;;29.90;13.50;;;;;;5089213;28;20590;-57
2021/05/01 06:55:33;;;;;;;10.65;1.80;;;29.90;13.50;;;;;;5088257;28;20449;-57
2021/05/01 06:58:01;;;;;;;6.50;1.48;;;29.90;13.50;;;;;;5090637;28;20444;-58
2021/05/01 07:00:29;;;;;;;6.10;1.73;;;29.90;13.70;;;;;;5091572;28;20073;-56
2021/05/01 07:03:07;;;;;;;6.35;1.60;;;29.80;13.60;;;;;;5090657;28;20154;-56
2021/05/01 07:05:35;;;;;;;5.32;1.35;;;29.80;13.70;;;;;;5089813;28;20080;-57
2021/05/01 07:08:02;;;;;;;3.38;1.30;;;29.80;13.80;;;;;;5095283;28;20137;-57
2021/05/01 07:10:29;;;;;;;5.00;1.58;;;29.80;13.70;;;;;;5074501;28;20153;-56
2021/05/01 07:12:57;;;;;;;9.98;1.95;;;29.80;13.70;;;;;;5089995;28;20096;-53
2021/05/01 07:15:24;;;;;;;10.57;1.48;;;29.70;13.70;;;;;;5095760;28;20079;-55
2021/05/01 07:17:51;;;;;;;5.10;1.30;;;29.70;13.60;;;;;;5089568;28;20222;-58
2021/05/01 07:20:20;;;;;;;5.22;1.98;;;29.70;13.70;;;;;;5093258;28;20104;-57
2021/05/01 07:22:51;;;;;;;6.22;1.38;;;29.70;13.70;;;;;;5095165;28;20088;-57
2021/05/01 07:25:18;;;;;;;6.15;1.30;;;29.60;13.60;;;;;;5089145;28;20068;-58
2021/05/01 07:27:47;;;;;;;5.93;1.10;;;29.60;13.60;;;;;;5090522;28;20402;-59
2021/05/01 07:30:16;;;;;;;3.47;1.20;;;29.60;13.80;;;;;;5093026;28;20087;-56
2021/05/01 07:32:47;;;;;;;5.05;1.20;;;29.60;13.80;;;;;;5077212;28;20210;-56
2021/05/01 07:35:19;;;;;;;5.13;1.40;;;29.50;14.30;;;;;;5092651;28;20076;-57
2021/05/01 07:37:51;;;;;;;5.30;1.40;;;29.40;13.90;;;;;;5090573;28;20472;-53
2021/05/01 07:40:23;;;;;;;4.63;1.30;;;29.30;13.90;;;;;;5093904;28;20084;-57
2021/05/01 07:42:51;;;;;;;9.95;1.33;;;29.30;14.40;;;;;;5095172;28;20072;-54
2021/05/01 07:45:22;;;;;;;10.80;1.77;;;29.20;14.00;;;;;;5092698;28;20095;-54
2021/05/01 07:47:55;;;;;;;4.75;1.30;;;29.10;14.00;;;;;;5091693;28;20182;-54
2021/05/01 07:50:23;;;;;;;7.53;1.55;;;29.10;14.10;;;;;;5092295;28;20081;-56
2021/05/01 07:52:52;;;;;;;6.63;1.30;;;29.00;14.10;;;;;;5090347;28;20160;-57
2021/05/01 07:55:20;;;;;;;4.72;1.30;;;29.00;14.00;;;;;;5071111;28;20130;-56
2021/05/01 07:57:47;;;;;;;10.98;1.30;;;28.90;14.10;;;;;;5092871;28;20145;-57
2021/05/01 08:00:16;;;;;;;6.55;1.50;;;28.90;14.10;;;;;;5080878;28;20167;-56
2021/05/01 08:02:43;;;;;;;6.80;1.20;;;28.80;14.10;;;;;;5095981;28;20075;-58
2021/05/01 08:05:18;;;;;;;3.30;1.10;;;28.80;14.00;;;;;;5092897;28;20564;-56
2021/05/01 08:07:45;;;;;;;6.82;1.35;;;28.80;14.10;;;;;;5097676;28;20143;-58
2021/05/01 08:10:12;;;;;;;9.10;1.33;;;28.70;14.20;;;;;;5081010;28;20085;-55
2021/05/01 08:12:39;;;;;;;5.22;1.30;;;28.70;14.20;;;;;;5094154;28;20068;-56
2021/05/01 08:15:07;;;;;;;3.25;1.48;;;28.60;14.20;;;;;;5094232;28;20088;-58
2021/05/01 08:17:33;;;;;;;9.70;1.35;;;28.60;14.20;;;;;;5097447;28;20524;-54
2021/05/01 08:20:01;;;;;;;8.27;1.63;;;28.50;14.40;;;;;;5079729;28;20119;-54
2021/05/01 08:22:27;;;;;;;5.00;1.10;;;28.50;14.20;;;;;;5093084;28;20432;-53
2021/05/01 08:24:54;;;;;;;6.05;1.23;;;28.50;14.20;;;;;;5095517;28;20069;-57
2021/05/01 08:27:20;;;;;;;5.60;1.60;;;28.50;14.20;;;;;;5096134;28;20178;-56
2021/05/01 08:29:47;;;;;;;9.80;1.27;;;28.40;14.30;;;;;;5093131;28;20505;-55
2021/05/01 08:32:14;;;;;;;8.68;1.30;;;28.40;14.30;;;;;;5096732;28;20130;-56
2021/05/01 08:34:41;;;;;;;7.20;1.30;;;28.30;15.00;;;;;;5092144;28;20552;-56
2021/05/01 08:37:07;;;;;;;6.40;1.17;;;28.30;15.10;;;;;;5098298;28;20091;-55
2021/05/01 08:39:34;;;;;;;7.10;1.65;;;28.20;15.50;;;;;;5094978;28;20071;-56
2021/05/01 08:42:00;;;;;;;8.25;1.50;;;28.20;15.30;;;;;;5094096;28;20141;-54
2021/05/01 08:44:27;;;;;;;7.70;1.27;;;28.10;14.90;;;;;;5093504;28;20099;-55
2021/05/01 08:46:53;;;;;;;5.50;1.20;;;28.10;14.90;;;;;;5096828;28;20104;-53
2021/05/01 08:49:20;;;;;;;6.45;1.20;;;28.00;14.50;;;;;;5096558;28;20084;-54
2021/05/01 08:51:47;;;;;;;6.93;2.25;;;27.90;15.10;;;;;;5099194;28;20156;-53
2021/05/01 08:54:15;;;;;;;11.23;1.95;;;27.90;15.10;;;;;;5096682;28;20096;-57
2021/05/01 08:56:43;;;;;;;6.65;1.60;;;27.90;14.50;;;;;;5092853;28;20080;-54
2021/05/01 08:59:10;;;;;;;12.27;1.77;;;27.90;14.70;;;;;;5096642;28;20085;-57
2021/05/01 09:01:38;;;;;;;9.98;1.80;;;27.80;14.10;;;;;;5096022;28;20524;-56
2021/05/01 09:04:09;;;;;;;5.25;1.95;;;27.80;14.00;;;;;;5093079;28;20529;-53
2021/05/01 09:06:37;;;;;;;6.57;2.38;;;27.70;13.90;;;;;;5095743;28;20533;-54
2021/05/01 09:09:07;;;;;;;12.40;3.22;;;27.80;13.80;;;;;;5076497;28;20553;-55
2021/05/01 09:11:37;;;;;;;13.43;3.58;;;27.80;13.80;;;;;;5092968;28;20103;-55
2021/05/01 09:14:20;;;;;;;9.70;2.47;;;27.80;14.00;;;;;;5093642;28;20127;-54
2021/05/01 09:17:01;;;;;;;5.63;2.67;;;27.80;13.50;;;;;;5098737;28;20548;-54
2021/05/01 09:19:37;;;;;;;12.02;2.75;;;27.80;13.20;;;;;;5092207;28;20087;-53
2021/05/01 09:22:12;;;;;;;6.35;2.70;;;27.90;13.00;;;;;;5093632;28;20072;-54
2021/05/01 09:24:39;;;;;;;5.28;2.95;;;27.90;13.60;;;;;;5092576;28;20072;-55
2021/05/01 09:27:07;;;;;;;6.30;2.95;;;27.90;13.70;;;;;;5093855;28;20076;-51
2021/05/01 09:29:38;;;;;;;5.88;1.90;;;27.90;13.10;;;;;;5088582;28;20066;-52
2021/05/01 09:32:18;;;;;;;7.07;2.00;;;28.00;12.40;;;;;;5096258;28;20160;-54
2021/05/01 09:34:48;;;;;;;5.15;1.58;;;28.10;12.30;;;;;;5092178;28;20142;-53
2021/05/01 09:37:19;;;;;;;12.05;1.55;;;28.20;12.10;;;;;;5093252;28;20068;-56
2021/05/01 09:39:54;;;;;;;10.57;2.03;;;28.20;12.20;;;;;;5096734;28;20073;-55
2021/05/01 09:42:22;;;;;;;4.57;1.50;;;28.30;12.10;;;;;;5095873;28;20083;-54
2021/05/01 09:45:06;;;;;;;3.08;1.25;;;28.30;12.10;;;;;;5093317;28;20076;-57
2021/05/01 09:47:34;;;;;;;6.22;1.50;;;28.30;12.00;;;;;;5097432;28;20116;-57
2021/05/01 09:50:16;;;;;;;7.75;1.38;;;28.30;12.10;;;;;;5090561;28;20597;-53
2021/05/01 09:52:57;;;;;;;2.88;1.02;;;28.30;12.10;;;;;;5058699;28;20103;-56
2021/05/01 09:55:46;;;;;;;3.95;0.90;;;28.30;12.10;;;;;;5095035;28;20073;-54
2021/05/01 09:58:14;;;;;;;4.65;1.02;;;28.40;12.10;;;;;;5091722;28;20076;-56
2021/05/01 10:00:41;;;;;;;4.88;0.70;;;28.30;12.10;;;;;;5092077;28;20146;-56
2021/05/01 10:03:28;;;;;;;8.77;1.02;;;28.30;12.10;;;;;;5093893;28;20087;-57
2021/05/01 10:05:58;;;;;;;9.43;1.20;;;28.30;12.30;;;;;;5090504;28;20533;-58
2021/05/01 10:08:32;;;;;;;7.57;1.20;;;28.30;12.40;;;;;;5093662;28;20101;-56
2021/05/01 10:11:11;;;;;;;3.75;1.02;;;28.20;12.10;;;;;;5094768;28;20083;-57
2021/05/01 10:14:07;;;;;;;4.10;0.95;;;28.20;12.40;;;;;;5093138;28;20128;-56
2021/05/01 10:16:35;;;;;;;4.45;1.25;;;28.10;12.30;;;;;;5077707;28;20444;-54
2021/05/01 10:19:13;;;;;;;3.70;1.00;;;28.00;12.20;;;;;;5092156;28;20099;-56
2021/05/01 10:21:41;;;;;;;5.55;1.10;;;28.10;12.00;;;;;;5091714;28;20080;-56
2021/05/01 10:24:09;;;;;;;7.57;1.20;;;28.10;12.10;;;;;;5093496;28;20084;-56
2021/05/01 10:26:47;;;;;;;3.45;1.05;;;28.00;12.70;;;;;;5092778;28;20104;-53
2021/05/01 10:29:34;;;;;;;6.25;1.33;;;27.90;12.80;;;;;;5093472;28;20077;-56
2021/05/01 10:32:13;;;;;;;3.53;1.30;;;27.90;13.20;;;;;;5087830;28;20543;-53
2021/05/01 10:34:42;;;;;;;4.28;1.00;;;27.80;13.20;;;;;;5089939;28;20104;-55
2021/05/01 10:37:12;;;;;;;5.72;1.30;;;27.70;13.70;;;;;;5093852;28;20076;-55
2021/05/01 10:39:44;;;;;;;7.68;1.00;;;27.60;14.20;;;;;;5092269;28;20072;-52
2021/05/01 10:42:14;;;;;;;7.80;1.48;;;27.50;14.40;;;;;;5093252;28;20091;-57
2021/05/01 10:44:53;;;;;;;8.88;1.20;;;27.40;15.30;;;;;;5093188;28;20080;-53
2021/05/01 10:47:20;;;;;;;4.55;1.10;;;27.20;15.00;;;;;;5094949;28;20122;-53
2021/05/01 10:49:47;;;;;;;9.27;1.23;;;27.10;15.20;;;;;;5093883;28;20076;-51
2021/05/01 10:52:19;;;;;;;7.35;1.10;;;27.00;15.90;;;;;;5090975;28;20084;-54
2021/05/01 10:55:03;;;;;;;6.13;1.02;;;26.90;16.00;;;;;;5093792;28;20131;-57
2021/05/01 10:57:31;;;;;;;8.52;1.25;;;26.80;16.10;;;;;;5092645;28;20081;-53
2021/05/01 11:00:09;;;;;;;10.85;1.55;;;26.60;16.20;;;;;;5091271;28;20072;-57
2021/05/01 11:02:43;;;;;;;8.82;1.55;;;26.50;15.40;;;;;;5092728;28;20072;-54
2021/05/01 11:05:13;;;;;;;7.43;1.40;;;26.40;16.30;;;;;;5091619;28;20134;-58
2021/05/01 11:08:00;;;;;;;7.75;1.25;;;26.40;15.30;;;;;;5093602;28;20080;-57
2021/05/01 11:10:27;;;;;;;8.95;1.30;;;26.20;15.80;;;;;;5093297;28;20470;-57
2021/05/01 11:12:56;;;;;;;6.93;1.50;;;26.20;15.90;;;;;;5091955;28;20072;-53
2021/05/01 11:15:25;;;;;;;6.80;1.42;;;26.10;16.00;;;;;;5090848;28;20475;-55
2021/05/01 11:18:06;;;;;;;6.75;1.55;;;26.10;16.30;;;;;;5072112;28;20478;-56
2021/05/01 11:20:33;;;;;;;11.63;1.63;;;26.00;17.10;;;;;;5091364;28;20540;-53
2021/05/01 11:22:59;;;;;;;10.75;1.40;;;25.80;17.60;;;;;;5091243;28;20087;-58
2021/05/01 11:25:30;;;;;;;9.35;1.48;;;25.80;17.90;;;;;;5093195;28;20436;-54
2021/05/01 11:27:57;;;;;;;6.63;1.73;;;25.70;17.70;;;;;;5095642;28;20060;-56
2021/05/01 11:30:26;;;;;;;6.53;1.55;;;25.60;17.10;;;;;;5092166;28;20486;-57
2021/05/01 11:32:54;;;;;;;5.45;1.48;;;25.60;17.40;;;;;;5092143;28;20483;-58
2021/05/01 11:35:26;;;;;;;5.40;1.27;;;25.50;16.50;;;;;;5095791;28;20073;-53
2021/05/01 11:37:54;;;;;;;13.15;1.98;;;25.40;17.40;;;;;;5093496;28;20159;-56
2021/05/01 11:40:22;;;;;;;13.95;2.20;;;25.40;17.90;;;;;;5092381;28;20112;-55
2021/05/01 11:42:50;;;;;;;7.20;2.03;;;25.30;18.10;;;;;;5098486;28;20076;-56
2021/05/01 11:45:43;;;;;;;14.25;2.53;;;25.20;18.00;;;;;;5097989;28;20145;-57
2021/05/01 11:48:46;;;;;;;26.38;6.05;;;25.10;18.10;;;;;;5093998;28;20126;-55
2021/05/01 11:51:17;;;;;;;50.88;8.63;;;24.90;19.50;;;;;;5096389;28;20065;-55
2021/05/01 11:54:18;;;;;;;53.67;13.25;;;24.80;21.60;;;;;;5094591;28;20096;-55
2021/05/01 11:57:17;;;;;;;61.83;20.65;;;24.70;24.20;;;;;;5082831;28;20099;-56
2021/05/01 11:59:45;;;;;;;72.40;25.42;;;24.60;28.00;;;;;;5094023;28;20518;-57
2021/05/01 12:02:15;;;;;;;79.13;24.67;;;24.50;30.40;;;;;;5092675;28;20073;-57
2021/05/01 12:04:51;;;;;;;84.25;25.25;;;24.40;32.10;;;;;;5093596;28;20079;-59
2021/05/01 12:07:42;;;;;;;73.05;24.15;;;24.30;33.20;;;;;;5093925;28;20111;-58
2021/05/01 12:10:17;;;;;;;82.22;25.45;;;24.20;34.10;;;;;;5092517;28;20087;-58
2021/05/01 12:13:04;;;;;;;90.28;24.88;;;24.10;35.20;;;;;;5095815;28;20161;-56
2021/05/01 12:15:39;;;;;;;85.07;25.73;;;24.00;35.90;;;;;;5094113;28;20077;-54
2021/05/01 12:18:06;;;;;;;85.13;24.33;;;23.90;36.30;;;;;;5082467;28;20072;-56
2021/05/01 12:20:36;;;;;;;101.03;25.20;;;23.80;36.30;;;;;;5095379;28;20521;-57
2021/05/01 12:23:10;;;;;;;98.30;25.23;;;23.60;36.00;;;;;;5095013;28;20085;-54
2021/05/01 12:25:43;;;;;;;88.03;25.00;;;23.60;36.40;;;;;;5093441;28;20064;-57
2021/05/01 12:28:10;;;;;;;92.20;26.02;;;23.50;36.60;;;;;;5092475;28;20161;-58
2021/05/01 12:30:40;;;;;;;82.22;26.02;;;23.50;36.90;;;;;;5098484;28;20076;-57
2021/05/01 12:33:30;;;;;;;96.40;25.98;;;23.50;37.60;;;;;;5096163;28;20162;-55
2021/05/01 12:35:59;;;;;;;84.60;23.27;;;23.50;38.00;;;;;;5090958;28;20080;-55
2021/05/01 12:38:28;;;;;;;77.10;21.98;;;23.30;37.30;;;;;;5094097;28;20544;-54
2021/05/01 12:41:07;;;;;;;59.30;16.25;;;23.30;37.10;;;;;;5092160;28;20085;-55
2021/05/01 12:43:33;;;;;;;56.10;15.52;;;23.30;37.10;;;;;;5091615;28;20436;-53
2021/05/01 12:46:21;;;;;;;48.88;15.65;;;23.20;37.00;;;;;;5094806;28;20229;-57
2021/05/01 12:48:50;;;;;;;;;;;23.20;37.00;;;;;;5075446;28;20134;-54
2021/05/01 12:51:17;;;;;;;75.32;20.55;;;23.20;37.20;;;;;;5095411;28;19961;-57
2021/05/01 12:53:44;;;;;;;70.45;25.13;;;23.20;37.00;;;;;;5098687;28;20104;-56
2021/05/01 12:56:15;;;;;;;79.43;25.90;;;23.10;37.70;;;;;;5092481;28;20069;-55
2021/05/01 12:58:42;;;;;;;80.32;27.25;;;23.10;37.80;;;;;;5092822;28;20121;-54